Time;durP1;ratioP1;P1;durP2;ratioP2;P2;SDS_P1;SDS_P2;PMS_P1;PMS_P2;Temp;Humidity;BMP_temperature;BMP_pressure;BME280_temperature;BME280_humidity;BME280_pressure;Samples;Min_cycle;Max_cycle;Signal;HPM_P1;HPM_P2
2021/07/10 00:00:24;;;;;;;1.42;1.25;;;;;;;20.87;49.28;97394.78;5014053;28;20485;-59
2021/07/10 00:02:50;;;;;;;2.53;1.30;;;;;;;20.13;51.92;97396.31;5013968;28;20084;-59
2021/07/10 00:05:16;;;;;;;1.90;1.13;;;;;;;20.33;51.29;97393.91;5012710;28;20400;-63
2021/07/10 00:07:42;;;;;;;1.48;1.30;;;;;;;20.55;50.04;97399.50;5013593;28;20101;-60
2021/07/10 00:10:10;;;;;;;1.30;1.20;;;;;;;20.44;50.42;97395.34;5013618;28;20113;-60
2021/07/10 00:12:35;;;;;;;1.30;1.10;;;;;;;20.22;52.37;97399.81;5014460;28;20367;-59
2021/07/10 00:15:01;;;;;;;2.05;1.30;;;;;;;20.23;51.53;97404.25;5013703;28;20509;-59
2021/07/10 00:17:26;;;;;;;2.90;1.10;;;;;;;20.40;49.91;97391.28;5013562;28;20034;-60
2021/07/10 00:19:52;;;;;;;1.35;1.20;;;;;;;20.53;48.84;97383.31;5013313;28;20030;-60
2021/07/10 00:22:21;;;;;;;2.20;1.23;;;;;;;20.67;49.79;97380.78;5012576;28;20018;-60
2021/07/10 00:24:46;;;;;;;1.48;1.20;;;;;;;20.79;48.28;97387.53;5011015;28;20026;-60
2021/07/10 00:27:12;;;;;;;5.40;1.30;;;;;;;20.91;47.61;97379.69;5010355;28;20080;-59
2021/07/10 00:29:38;;;;;;;2.63;1.00;;;;;;;21.03;47.36;97383.69;5012980;28;20022;-60
2021/07/10 00:32:03;;;;;;;1.38;1.10;;;;;;;20.51;49.74;97370.88;5045449;28;20048;-59
2021/07/10 00:34:29;;;;;;;1.20;1.10;;;;;;;20.46;50.05;97374.16;5013331;28;20093;-60
2021/07/10 00:36:54;;;;;;;2.30;1.17;;;;;;;20.69;49.02;97371.41;5013599;28;20062;-59
2021/07/10 00:39:20;;;;;;;3.05;1.10;;;;;;;20.69;49.21;97363.19;5011952;28;20030;-59
2021/07/10 00:41:45;;;;;;;1.40;1.00;;;;;;;20.44;50.60;97368.03;5013566;28;20032;-60
2021/07/10 00:44:11;;;;;;;2.42;1.10;;;;;;;20.29;50.46;97365.28;5013402;28;20026;-59
2021/07/10 00:46:36;;;;;;;1.25;0.98;;;;;;;20.26;50.84;97364.78;5013529;28;20092;-59
2021/07/10 00:49:02;;;;;;;1.45;1.10;;;;;;;20.33;50.02;97363.88;5013787;28;20022;-60
2021/07/10 00:51:27;;;;;;;3.17;0.98;;;;;;;20.68;49.22;97371.56;5011941;28;20478;-59
2021/07/10 00:53:52;;;;;;;1.55;1.17;;;;;;;20.60;50.25;97374.38;5013052;28;20104;-59
2021/07/10 00:56:18;;;;;;;0.93;0.93;;;;;;;20.75;48.99;97367.06;5013013;28;20101;-59
2021/07/10 00:58:44;;;;;;;1.67;1.25;;;;;;;20.85;48.88;97367.63;5012240;28;20026;-59
2021/07/10 01:01:10;;;;;;;1.13;1.02;;;;;;;20.56;49.97;97368.44;5013634;28;20427;-60
2021/07/10 01:03:39;;;;;;;3.90;1.27;;;;;;;20.45;50.40;97361.53;5045074;28;20029;-60
2021/07/10 01:06:05;;;;;;;2.58;1.00;;;;;;;20.33;50.18;97357.56;5013206;28;20033;-60
2021/07/10 01:08:30;;;;;;;4.22;1.35;;;;;;;20.43;49.89;97360.91;5013010;28;20022;-60
2021/07/10 01:10:57;;;;;;;1.65;1.30;;;;;;;20.21;50.73;97352.53;5013332;28;20602;-59
2021/07/10 01:13:22;;;;;;;1.75;1.10;;;;;;;20.29;51.84;97361.72;5012941;28;20033;-59
2021/07/10 01:15:48;;;;;;;2.45;1.20;;;;;;;20.30;50.14;97356.06;5044696;28;20030;-60
2021/07/10 01:18:14;;;;;;;1.42;1.08;;;;;;;20.40;49.41;97355.78;5011678;28;20080;-59
2021/07/10 01:20:50;;;;;;;1.40;1.10;;;;;;;20.40;49.08;97353.91;5013263;28;20439;-59
2021/07/10 01:23:16;;;;;;;1.05;1.00;;;;;;;20.34;49.77;97345.63;5045047;28;20421;-59
2021/07/10 01:25:42;;;;;;;2.40;1.10;;;;;;;20.41;49.13;97343.81;5011632;28;20030;-59
2021/07/10 01:28:08;;;;;;;1.80;1.00;;;;;;;20.50;48.89;97337.25;5012933;28;20136;-59
2021/07/10 01:30:34;;;;;;;1.20;0.93;;;;;;;20.68;48.43;97336.03;5012755;28;20062;-59
2021/07/10 01:33:00;;;;;;;1.73;1.10;;;;;;;20.71;48.46;97338.41;5015883;28;20371;-59
2021/07/10 01:35:25;;;;;;;2.40;1.08;;;;;;;20.78;48.31;97339.38;5016285;28;20057;-59
2021/07/10 01:37:51;;;;;;;1.23;1.00;;;;;;;20.84;47.99;97341.34;5016403;28;20037;-59
2021/07/10 01:40:18;;;;;;;1.20;0.90;;;;;;;20.74;48.17;97340.78;5048394;28;20032;-59
2021/07/10 01:42:44;;;;;;;5.63;1.20;;;;;;;20.64;48.53;97340.19;5014962;28;20113;-60
2021/07/10 01:45:10;;;;;;;1.73;1.00;;;;;;;20.28;49.68;97336.25;5016381;28;20073;-59
2021/07/10 01:47:36;;;;;;;1.23;1.00;;;;;;;20.49;49.22;97345.63;5048075;28;20034;-60
2021/07/10 01:50:04;;;;;;;2.30;1.20;;;;;;;20.70;48.11;97334.00;5016548;28;20034;-59
2021/07/10 01:52:29;;;;;;;2.28;0.90;;;;;;;20.65;48.47;97341.88;5016203;28;20425;-60
2021/07/10 01:54:55;;;;;;;1.63;1.10;;;;;;;20.82;48.00;97327.03;5014663;28;20494;-59
2021/07/10 01:57:20;;;;;;;0.88;0.88;;;;;;;20.76;48.11;97333.22;5014471;28;20030;-59
2021/07/10 01:59:46;;;;;;;0.90;0.90;;;;;;;20.69;48.45;97333.13;5015878;28;20025;-60
2021/07/10 02:02:11;;;;;;;1.25;0.90;;;;;;;20.66;48.10;97333.50;5015763;28;20026;-60
2021/07/10 02:04:48;;;;;;;1.60;1.05;;;;;;;20.71;48.00;97335.69;5015816;28;20033;-60
2021/07/10 02:07:14;;;;;;;1.30;0.90;;;;;;;20.58;48.27;97333.59;5047694;28;20426;-60
2021/07/10 02:09:40;;;;;;;1.48;1.02;;;;;;;20.72;47.63;97334.66;5015536;28;20048;-60
2021/07/10 02:12:05;;;;;;;1.70;0.85;;;;;;;20.74;47.75;97332.59;5015841;28;20474;-59
2021/07/10 02:14:31;;;;;;;0.90;0.90;;;;;;;20.73;47.62;97326.25;5015775;28;20056;-59
2021/07/10 02:16:56;;;;;;;1.38;1.23;;;;;;;20.81;47.45;97330.78;5015229;28;20122;-59
2021/07/10 02:19:21;;;;;;;1.20;1.10;;;;;;;20.72;47.79;97318.25;5014172;28;20080;-59
2021/07/10 02:21:47;;;;;;;2.00;1.13;;;;;;;20.58;48.39;97318.03;5015658;28;20117;-59
2021/07/10 02:24:12;;;;;;;2.75;1.00;;;;;;;20.63;47.98;97316.63;5015639;28;20026;-60
2021/07/10 02:26:38;;;;;;;1.20;0.90;;;;;;;20.61;48.39;97322.28;5015472;28;20049;-60
2021/07/10 02:29:06;;;;;;;0.95;0.88;;;;;;;20.65;47.86;97315.41;5015187;28;20115;-60
2021/07/10 02:31:33;;;;;;;1.75;1.02;;;;;;;20.62;48.72;97318.50;5015706;28;20061;-59
2021/07/10 02:33:59;;;;;;;2.90;0.95;;;;;;;20.64;48.19;97312.84;5015224;28;20022;-59
2021/07/10 02:36:24;;;;;;;1.70;1.00;;;;;;;20.60;48.00;97317.00;5014950;28;20036;-59
2021/07/10 02:38:50;;;;;;;1.95;1.10;;;;;;;20.54;49.14;97319.44;5015258;28;20033;-59
2021/07/10 02:41:16;;;;;;;2.63;1.00;;;;;;;20.28;49.21;97308.13;5015142;28;20108;-59
2021/07/10 02:43:41;;;;;;;3.33;1.00;;;;;;;20.44;47.92;97313.41;5014551;28;20069;-59
2021/07/10 02:46:07;;;;;;;2.83;1.02;;;;;;;20.41;48.22;97306.44;5014811;28;20073;-59
2021/07/10 02:48:32;;;;;;;1.63;0.90;;;;;;;20.42;48.05;97301.81;5046803;28;20036;-59
2021/07/10 02:50:58;;;;;;;3.95;0.90;;;;;;;20.44;48.15;97305.19;5013525;28;20033;-60
2021/07/10 02:53:23;;;;;;;0.90;0.90;;;;;;;20.40;47.94;97303.88;5014818;28;20045;-59
2021/07/10 02:55:49;;;;;;;2.00;0.98;;;;;;;20.46;48.04;97302.31;5015188;28;20036;-59
2021/07/10 02:58:14;;;;;;;2.40;1.02;;;;;;;20.55;47.82;97312.09;5046645;28;20037;-60
2021/07/10 03:00:41;;;;;;;1.55;0.90;;;;;;;20.56;48.25;97305.59;5014715;28;20034;-60
2021/07/10 03:03:07;;;;;;;1.10;1.00;;;;;;;20.34;48.32;97316.41;5014643;28;20482;-60
2021/07/10 03:05:33;;;;;;;1.10;1.00;;;;;;;20.06;49.69;97305.25;5014574;28;20029;-60
2021/07/10 03:08:00;;;;;;;2.70;1.00;;;;;;;20.18;49.56;97306.50;5014587;28;20030;-59
2021/07/10 03:10:27;;;;;;;0.98;0.90;;;;;;;20.05;49.86;97309.84;5029676;28;20542;-59
2021/07/10 03:12:53;;;;;;;1.55;0.90;;;;;;;20.17;49.06;97307.53;5014438;28;20030;-59
2021/07/10 03:15:18;;;;;;;1.25;1.00;;;;;;;20.33;48.42;97314.72;5014487;28;20536;-59
2021/07/10 03:17:45;;;;;;;1.67;1.00;;;;;;;20.31;48.12;97310.47;5013640;28;20034;-59
2021/07/10 03:20:12;;;;;;;2.55;0.75;;;;;;;20.34;48.18;97316.41;5014329;28;20474;-59
2021/07/10 03:22:38;;;;;;;2.50;0.93;;;;;;;20.34;48.28;97310.94;5046129;28;20049;-59
2021/07/10 03:25:05;;;;;;;1.00;1.00;;;;;;;20.30;48.68;97315.09;5046397;28;20434;-59
2021/07/10 03:27:31;;;;;;;1.00;1.00;;;;;;;20.38;48.37;97325.94;5046069;28;20091;-59
2021/07/10 03:29:56;;;;;;;0.95;0.95;;;;;;;20.39;48.03;97319.44;5014455;28;20038;-59
2021/07/10 03:32:22;;;;;;;4.80;1.15;;;;;;;20.53;47.28;97328.66;5014171;28;20026;-60
2021/07/10 03:34:47;;;;;;;2.10;0.82;;;;;;;20.73;46.96;97320.78;5046293;28;20102;-59
2021/07/10 03:37:13;;;;;;;2.92;0.98;;;;;;;20.73;46.88;97323.53;5008797;28;21053;-59
2021/07/10 03:39:38;;;;;;;3.60;1.05;;;;;;;20.75;46.83;97326.06;5009769;28;20030;-59
2021/07/10 03:42:04;;;;;;;1.13;1.00;;;;;;;20.78;46.83;97328.44;5012680;28;20022;-58
2021/07/10 03:44:29;;;;;;;0.98;0.90;;;;;;;20.73;47.48;97328.16;5013994;28;20486;-58
2021/07/10 03:46:55;;;;;;;2.63;1.20;;;;;;;20.66;48.06;97332.66;5013239;28;20494;-59
2021/07/10 03:49:20;;;;;;;1.08;1.00;;;;;;;20.67;48.38;97329.72;5012215;28;20112;-59
2021/07/10 03:51:45;;;;;;;2.38;1.15;;;;;;;20.58;48.63;97328.97;5013551;28;20070;-58
2021/07/10 03:54:11;;;;;;;1.45;1.00;;;;;;;20.57;48.26;97331.88;5012677;28;20406;-59
2021/07/10 03:56:36;;;;;;;0.80;0.80;;;;;;;20.57;47.98;97335.44;5013817;28;20120;-59
2021/07/10 03:59:02;;;;;;;1.13;0.95;;;;;;;20.57;47.42;97342.81;5012321;28;20021;-60
2021/07/10 04:01:27;;;;;;;0.95;0.95;;;;;;;20.52;47.62;97340.66;5012238;28;20033;-59
2021/07/10 04:03:52;;;;;;;2.75;0.95;;;;;;;20.51;47.84;97341.69;5013333;28;20034;-60
2021/07/10 04:06:18;;;;;;;1.20;0.98;;;;;;;20.60;47.41;97336.13;5013211;28;20095;-59
2021/07/10 04:08:43;;;;;;;1.27;1.00;;;;;;;20.75;47.20;97350.66;5012126;28;20021;-59
2021/07/10 04:11:10;;;;;;;1.55;1.20;;;;;;;20.86;47.17;97344.75;5013114;28;20052;-59
2021/07/10 04:13:36;;;;;;;2.00;1.00;;;;;;;20.80;47.23;97342.75;5011822;28;20466;-59
2021/07/10 04:16:02;;;;;;;2.30;0.90;;;;;;;20.74;47.21;97347.09;5011770;28;20029;-61
2021/07/10 04:18:27;;;;;;;1.90;1.00;;;;;;;20.68;47.61;97352.44;5013305;28;20492;-59
2021/07/10 04:20:53;;;;;;;3.10;0.80;;;;;;;20.80;46.88;97348.22;5013632;28;20092;-60
2021/07/10 04:23:20;;;;;;;1.42;0.85;;;;;;;20.99;48.02;97360.50;5012262;28;20026;-59
2021/07/10 04:25:45;;;;;;;0.90;0.90;;;;;;;21.14;47.97;97360.47;5012277;28;20034;-59
2021/07/10 04:28:11;;;;;;;1.20;1.00;;;;;;;21.13;48.13;97353.31;5005785;28;20042;-59
2021/07/10 04:30:37;;;;;;;1.83;0.90;;;;;;;21.16;48.72;97346.59;5044580;28;20034;-59
2021/07/10 04:33:02;;;;;;;0.80;0.80;;;;;;;21.14;48.59;97352.28;5012734;28;20121;-59
2021/07/10 04:35:28;;;;;;;3.22;1.33;;;;;;;21.13;48.02;97353.31;5012994;28;20022;-59
2021/07/10 04:37:53;;;;;;;1.90;1.20;;;;;;;21.13;48.06;97349.72;5011414;28;20034;-59
2021/07/10 04:40:19;;;;;;;1.00;1.00;;;;;;;21.14;47.50;97352.28;5012857;28;20030;-59
2021/07/10 04:42:45;;;;;;;1.25;1.08;;;;;;;21.00;48.07;97358.59;5012960;28;20030;-59
2021/07/10 04:45:11;;;;;;;1.23;1.20;;;;;;;20.38;51.38;97350.50;5012716;28;20545;-59
2021/07/10 04:47:37;;;;;;;1.20;1.10;;;;;;;20.58;49.44;97359.00;5013344;28;20038;-60
2021/07/10 04:50:04;;;;;;;1.33;1.20;;;;;;;20.68;49.49;97358.72;5011855;28;20033;-60
2021/07/10 04:52:29;;;;;;;1.70;1.20;;;;;;;20.93;49.35;97354.94;5010150;28;20026;-58
2021/07/10 04:54:55;;;;;;;2.88;1.30;;;;;;;20.93;47.97;97349.47;5011051;28;20049;-60
2021/07/10 04:57:20;;;;;;;1.60;1.20;;;;;;;20.89;48.42;97357.19;5010693;28;20034;-59
2021/07/10 04:59:45;;;;;;;1.73;1.20;;;;;;;20.40;50.74;97353.06;5009924;28;20096;-59
2021/07/10 05:02:11;;;;;;;4.47;1.30;;;;;;;20.16;52.16;97354.13;5011168;28;20121;-61
2021/07/10 05:04:36;;;;;;;3.83;1.20;;;;;;;20.11;52.23;97359.28;5011309;28;20259;-60
2021/07/10 05:07:03;;;;;;;1.30;1.20;;;;;;;20.05;51.55;97366.34;5013350;28;20044;-59
2021/07/10 05:09:28;;;;;;;1.10;1.08;;;;;;;20.12;51.40;97358.25;5013792;28;20018;-59
2021/07/10 05:11:53;;;;;;;1.30;1.20;;;;;;;20.21;51.04;97365.34;5015095;28;20092;-59
2021/07/10 05:14:19;;;;;;;1.55;1.10;;;;;;;20.27;50.17;97369.22;5014643;28;20033;-59
2021/07/10 05:16:44;;;;;;;2.50;0.98;;;;;;;20.32;50.13;97370.34;5014698;28;20112;-59
2021/07/10 05:19:10;;;;;;;2.65;1.40;;;;;;;20.30;52.35;97374.34;5013287;28;20475;-59
2021/07/10 05:21:35;;;;;;;1.75;1.30;;;;;;;20.55;49.33;97375.78;5014614;28;20028;-60
2021/07/10 05:24:01;;;;;;;1.63;1.10;;;;;;;20.73;48.30;97380.91;5014675;28;20041;-60
2021/07/10 05:26:27;;;;;;;1.85;1.10;;;;;;;20.68;49.57;97377.03;5013331;28;20034;-59
2021/07/10 05:28:53;;;;;;;1.10;0.98;;;;;;;20.54;49.62;97386.91;5014927;28;20041;-59
2021/07/10 05:31:18;;;;;;;0.98;0.90;;;;;;;20.55;49.01;97383.13;5014674;28;20185;-59
2021/07/10 05:33:43;;;;;;;1.27;1.05;;;;;;;20.82;46.91;97378.97;5015475;28;20026;-62
2021/07/10 05:36:09;;;;;;;0.95;0.90;;;;;;;21.11;46.66;97380.00;5010144;28;20029;-57
2021/07/10 05:38:35;;;;;;;1.00;1.00;;;;;;;21.27;46.11;97383.56;5015456;28;20463;-60
2021/07/10 05:41:00;;;;;;;1.98;1.10;;;;;;;21.27;46.32;97389.03;5015000;28;20035;-61
2021/07/10 05:43:26;;;;;;;1.70;1.30;;;;;;;20.94;49.25;97383.94;5016007;28;20022;-61
2021/07/10 05:45:51;;;;;;;1.77;1.10;;;;;;;20.88;48.99;97391.00;5014677;28;20506;-60
2021/07/10 05:48:17;;;;;;;2.13;0.93;;;;;;;21.09;47.88;97384.81;5015955;28;20592;-60
2021/07/10 05:50:43;;;;;;;1.52;1.20;;;;;;;21.32;47.05;97397.50;5015628;28;20049;-60
2021/07/10 05:53:08;;;;;;;1.13;1.00;;;;;;;21.47;46.36;97392.00;5015557;28;20354;-60
2021/07/10 05:55:34;;;;;;;2.03;1.30;;;;;;;21.59;46.34;97397.88;4994731;28;20105;-62
2021/07/10 05:58:00;;;;;;;1.92;1.48;;;;;;;21.62;46.90;97400.22;4995468;28;20022;-61
2021/07/10 06:00:25;;;;;;;1.70;1.30;;;;;;;21.64;47.31;97400.88;4995672;28;20029;-61
2021/07/10 06:02:51;;;;;;;1.80;1.23;;;;;;;21.64;47.98;97409.09;4995034;28;20022;-62
2021/07/10 06:05:16;;;;;;;2.45;1.20;;;;;;;21.40;49.17;97406.44;5026886;28;20026;-61
2021/07/10 06:07:42;;;;;;;3.30;1.40;;;;;;;21.36;50.49;97415.25;4995525;28;20076;-61
2021/07/10 06:10:10;;;;;;;1.58;1.20;;;;;;;21.37;50.75;97416.94;4995380;28;20030;-61
2021/07/10 06:12:35;;;;;;;4.32;1.50;;;;;;;21.45;50.85;97416.00;4995539;28;20019;-61
2021/07/10 06:15:02;;;;;;;2.30;1.40;;;;;;;21.46;49.37;97412.19;4994969;28;20029;-61
2021/07/10 06:17:28;;;;;;;3.40;1.48;;;;;;;21.60;49.21;97416.00;5026930;28;20069;-60
2021/07/10 06:19:54;;;;;;;1.98;1.48;;;;;;;21.75;49.41;97414.06;4995332;28;20077;-61
2021/07/10 06:22:19;;;;;;;2.50;1.30;;;;;;;21.81;49.00;97424.25;4996016;28;20022;-61
2021/07/10 06:24:45;;;;;;;1.75;1.27;;;;;;;21.93;48.63;97415.50;5026848;28;20023;-60
2021/07/10 06:27:10;;;;;;;1.83;1.30;;;;;;;21.99;48.87;97420.22;4995370;28;20026;-60
2021/07/10 06:29:36;;;;;;;1.45;1.25;;;;;;;22.04;48.80;97417.75;4994781;28;20442;-61
2021/07/10 06:32:02;;;;;;;1.95;1.20;;;;;;;21.99;48.94;97414.75;5014449;28;20020;-60
2021/07/10 06:34:27;;;;;;;1.10;1.10;;;;;;;21.96;49.97;97413.25;5013606;28;20112;-61
2021/07/10 06:36:53;;;;;;;3.17;1.33;;;;;;;22.01;50.39;97418.16;5014202;28;20478;-61
2021/07/10 06:39:20;;;;;;;5.13;1.63;;;;;;;22.10;50.21;97414.25;5014829;28;20030;-61
2021/07/10 06:41:45;;;;;;;2.60;1.42;;;;;;;22.18;51.42;97410.50;5014405;28;20018;-61
2021/07/10 06:44:11;;;;;;;3.08;1.50;;;;;;;22.27;51.71;97412.06;5013386;28;20494;-61
2021/07/10 06:46:36;;;;;;;2.20;1.42;;;;;;;22.32;51.56;97414.22;5014467;28;20425;-61
2021/07/10 06:49:02;;;;;;;2.83;1.38;;;;;;;22.42;50.79;97413.94;5014293;28;20068;-61
2021/07/10 06:51:28;;;;;;;1.45;1.33;;;;;;;22.60;49.33;97406.06;5014390;28;20041;-61
2021/07/10 06:53:54;;;;;;;1.33;1.23;;;;;;;22.67;48.84;97422.56;5013910;28;20069;-61
2021/07/10 06:56:19;;;;;;;3.10;1.20;;;;;;;22.77;47.02;97414.84;5014582;28;20042;-61
2021/07/10 06:58:44;;;;;;;3.75;1.40;;;;;;;22.82;46.57;97420.59;5013391;28;20037;-61
2021/07/10 07:01:10;;;;;;;1.35;1.25;;;;;;;22.92;47.44;97422.97;5014875;28;20458;-61
2021/07/10 07:03:35;;;;;;;3.05;1.40;;;;;;;22.93;48.25;97415.56;5014421;28;20068;-61
2021/07/10 07:06:01;;;;;;;1.95;1.23;;;;;;;22.94;49.14;97425.50;5014580;28;20445;-61
2021/07/10 07:08:26;;;;;;;1.73;1.20;;;;;;;22.96;48.32;97418.78;5014690;28;20447;-61
2021/07/10 07:10:51;;;;;;;3.08;1.50;;;;;;;23.04;48.86;97415.03;5014042;28;20562;-61
2021/07/10 07:13:17;;;;;;;2.10;1.48;;;;;;;23.03;47.11;97419.66;5014547;28;20042;-60
2021/07/10 07:15:43;;;;;;;2.83;1.50;;;;;;;22.96;48.36;97424.25;5014317;28;20036;-60
2021/07/10 07:18:08;;;;;;;1.85;1.35;;;;;;;23.06;47.94;97418.41;5012760;28;20038;-60
2021/07/10 07:20:34;;;;;;;2.78;1.38;;;;;;;23.05;48.94;97420.31;4996418;28;20026;-61
2021/07/10 07:22:59;;;;;;;3.03;1.50;;;;;;;23.06;50.17;97415.66;5014870;28;20026;-61
2021/07/10 07:25:25;;;;;;;2.65;1.48;;;;;;;23.14;49.67;97415.53;5014178;28;20467;-60
2021/07/10 07:27:52;;;;;;;4.55;1.48;;;;;;;23.17;48.86;97414.28;5012468;28;20045;-61
2021/07/10 07:30:18;;;;;;;4.90;1.77;;;;;;;23.13;47.21;97413.84;5014014;28;20087;-61
2021/07/10 07:32:44;;;;;;;4.10;1.30;;;;;;;23.11;45.17;97404.94;5012495;28;20036;-62
2021/07/10 07:35:11;;;;;;;2.92;1.58;;;;;;;23.20;46.00;97411.16;5010497;28;20076;-61
2021/07/10 07:37:37;;;;;;;4.43;1.52;;;;;;;23.30;46.41;97413.53;5011291;28;20026;-62
2021/07/10 07:40:08;;;;;;;3.60;1.40;;;;;;;23.31;45.74;97409.72;5012307;28;20544;-62
2021/07/10 07:42:33;;;;;;;;;;;;;;;23.30;44.22;97428.06;5011506;28;20053;-62
2021/07/10 07:44:59;;;;;;;2.92;1.30;;;;;;;23.32;44.77;97416.91;5011903;28;19913;-62
2021/07/10 07:47:25;;;;;;;3.70;1.40;;;;;;;23.37;44.40;97418.00;5010153;28;20029;-61
2021/07/10 07:49:50;;;;;;;7.03;1.45;;;;;;;23.38;44.42;97418.84;5012518;28;20485;-62
2021/07/10 07:52:16;;;;;;;3.55;1.42;;;;;;;23.34;44.42;97417.56;5011874;28;20449;-62
2021/07/10 07:54:41;;;;;;;8.02;1.73;;;;;;;23.35;45.38;97422.00;5012873;28;20494;-62
2021/07/10 07:57:08;;;;;;;3.08;1.50;;;;;;;23.51;45.08;97424.38;5011836;28;20054;-63
2021/07/10 07:59:34;;;;;;;2.92;1.40;;;;;;;23.61;44.90;97425.91;5012315;28;20086;-62
2021/07/10 08:02:00;;;;;;;4.13;1.70;;;;;;;23.67;45.19;97422.34;5012200;28;20025;-62
2021/07/10 08:04:25;;;;;;;2.03;1.20;;;;;;;23.66;45.43;97423.41;5013023;28;20383;-62
2021/07/10 08:06:50;;;;;;;7.35;1.80;;;;;;;23.76;45.62;97421.13;5013028;28;20029;-62
2021/07/10 08:09:16;;;;;;;3.03;1.67;;;;;;;23.87;46.06;97426.00;5013389;28;20030;-62
2021/07/10 08:11:41;;;;;;;3.67;1.55;;;;;;;23.92;46.06;97425.44;5013074;28;20471;-62
2021/07/10 08:14:07;;;;;;;7.13;1.60;;;;;;;23.96;45.54;97425.84;5013057;28;20037;-62
2021/07/10 08:16:33;;;;;;;4.70;1.80;;;;;;;23.99;45.50;97420.78;5044714;28;20033;-62
2021/07/10 08:18:59;;;;;;;4.80;1.67;;;;;;;24.07;45.15;97417.84;5013183;28;20030;-62
2021/07/10 08:21:26;;;;;;;4.03;1.63;;;;;;;24.10;44.44;97424.81;5013568;28;20030;-62
2021/07/10 08:23:52;;;;;;;5.57;1.60;;;;;;;24.17;45.05;97422.09;5012498;28;20033;-61
2021/07/10 08:26:18;;;;;;;4.50;1.65;;;;;;;24.30;44.53;97424.03;5012209;28;20405;-61
2021/07/10 08:28:43;;;;;;;4.20;1.63;;;;;;;24.29;44.40;97420.44;5012236;28;20486;-61
2021/07/10 08:31:09;;;;;;;5.85;2.00;;;;;;;24.35;43.95;97418.75;5013459;28;20033;-61
2021/07/10 08:33:34;;;;;;;4.03;1.70;;;;;;;24.33;44.00;97424.47;5012388;28;20394;-61
2021/07/10 08:36:00;;;;;;;3.40;1.70;;;;;;;24.27;43.87;97418.97;5013154;28;20466;-61
2021/07/10 08:38:25;;;;;;;3.08;1.60;;;;;;;24.35;43.13;97421.50;5013320;28;20030;-61
2021/07/10 08:40:52;;;;;;;4.85;1.80;;;;;;;24.35;42.93;97416.00;5015056;28;20034;-61
2021/07/10 08:43:18;;;;;;;3.42;1.80;;;;;;;24.39;43.02;97423.59;5017390;28;20042;-61
2021/07/10 08:45:46;;;;;;;3.88;1.67;;;;;;;24.42;43.07;97422.34;5017208;28;20033;-61
2021/07/10 08:48:12;;;;;;;3.83;1.75;;;;;;;24.43;42.39;97417.72;5017291;28;20068;-61
2021/07/10 08:50:38;;;;;;;3.78;1.90;;;;;;;24.39;43.15;97423.59;5017379;28;20061;-61
2021/07/10 08:53:04;;;;;;;3.60;1.73;;;;;;;24.46;43.21;97411.78;5015788;28;20026;-61
2021/07/10 08:55:30;;;;;;;8.73;1.90;;;;;;;24.51;42.83;97410.09;5017074;28;20045;-61
2021/07/10 08:57:56;;;;;;;3.75;1.70;;;;;;;24.58;42.68;97407.34;5016854;28;20125;-61
2021/07/10 09:00:32;;;;;;;2.65;1.60;;;;;;;24.66;42.87;97414.56;5016002;28;20106;-62
2021/07/10 09:02:58;;;;;;;7.10;2.03;;;;;;;24.66;42.64;97418.16;5017123;28;20113;-61
2021/07/10 09:05:25;;;;;;;5.03;1.77;;;;;;;24.69;42.54;97419.63;5015581;28;20429;-61
2021/07/10 09:08:13;;;;;;;4.72;1.77;;;;;;;24.68;42.33;97410.53;5016753;28;20049;-61
2021/07/10 09:10:41;;;;;;;6.47;1.77;;;;;;;24.77;41.89;97416.66;5017077;28;20386;-61
2021/07/10 09:13:07;;;;;;;10.77;2.28;;;;;;;24.82;42.62;97416.88;5016999;28;20032;-62
2021/07/10 09:15:32;;;;;;;2.70;1.70;;;;;;;25.00;41.65;97413.47;5016864;28;20034;-61
2021/07/10 09:17:58;;;;;;;2.65;1.63;;;;;;;25.04;42.15;97422.13;5015211;28;20038;-62
2021/07/10 09:20:26;;;;;;;3.47;1.70;;;;;;;25.05;41.79;97424.69;5016872;28;20030;-62
2021/07/10 09:22:52;;;;;;;2.35;1.63;;;;;;;25.08;41.35;97417.91;5016730;28;20367;-62
2021/07/10 09:25:27;;;;;;;3.47;1.50;;;;;;;25.02;40.91;97416.00;5015265;28;20076;-61
2021/07/10 09:27:53;;;;;;;2.53;1.45;;;;;;;24.98;41.30;97420.25;5015154;28;20041;-61
2021/07/10 09:30:35;;;;;;;3.33;1.60;;;;;;;24.96;41.57;97417.72;5016936;28;20033;-61
2021/07/10 09:33:22;;;;;;;4.10;1.90;;;;;;;25.11;42.71;97414.72;5016537;28;20037;-61
2021/07/10 09:35:55;;;;;;;3.75;1.80;;;;;;;25.07;42.85;97424.47;5015389;28;20076;-61
2021/07/10 09:38:34;;;;;;;5.85;1.70;;;;;;;25.18;42.87;97420.22;5016558;28;20096;-62
2021/07/10 09:41:09;;;;;;;4.03;1.60;;;;;;;25.30;42.43;97420.41;5015316;28;20022;-62
2021/07/10 09:43:36;;;;;;;4.70;1.60;;;;;;;25.27;41.97;97418.94;5016479;28;20026;-61
2021/07/10 09:46:05;;;;;;;4.88;2.03;;;;;;;25.30;41.60;97415.72;5016113;28;20489;-61
2021/07/10 09:48:37;;;;;;;5.35;1.80;;;;;;;25.32;42.23;97410.00;5014924;28;20379;-61
2021/07/10 09:51:17;;;;;;;2.35;1.70;;;;;;;25.28;41.51;97408.75;5014785;28;20497;-62
2021/07/10 09:53:57;;;;;;;6.13;3.17;;;;;;;25.38;40.41;97406.44;5014073;28;20379;-62
2021/07/10 09:56:22;;;;;;;4.45;2.00;;;;;;;25.30;41.15;97407.47;4998219;28;20036;-62
2021/07/10 09:58:48;;;;;;;5.90;2.22;;;;;;;25.35;41.15;97406.88;5016130;28;20038;-62
2021/07/10 10:01:35;;;;;;;3.20;1.60;;;;;;;25.45;40.42;97420.19;5016425;28;20029;-62
2021/07/10 10:04:02;;;;;;;2.53;1.90;;;;;;;25.56;40.14;97412.09;5014889;28;20040;-62
2021/07/10 10:06:29;;;;;;;4.80;1.80;;;;;;;25.58;41.71;97409.13;5014714;28;20030;-62
2021/07/10 10:09:17;;;;;;;3.50;1.73;;;;;;;25.65;40.68;97406.31;5014411;28;20080;-62
2021/07/10 10:11:57;;;;;;;2.20;1.60;;;;;;;25.63;40.60;97408.44;5015917;28;20029;-62
2021/07/10 10:14:22;;;;;;;4.63;1.98;;;;;;;25.73;40.42;97403.31;5015535;28;20025;-62
2021/07/10 10:16:49;;;;;;;2.22;1.50;;;;;;;25.88;40.96;97405.78;5015547;28;20030;-61
2021/07/10 10:19:16;;;;;;;3.15;1.80;;;;;;;25.98;40.85;97399.81;5014199;28;20026;-62
2021/07/10 10:21:44;;;;;;;4.35;1.92;;;;;;;25.99;41.29;97402.34;5015490;28;20026;-62
2021/07/10 10:24:10;;;;;;;7.25;2.33;;;;;;;25.91;41.34;97397.09;5014085;28;20022;-62
2021/07/10 10:26:36;;;;;;;5.55;1.80;;;;;;;26.03;41.69;97397.25;5014116;28;20021;-62
2021/07/10 10:29:01;;;;;;;4.40;1.90;;;;;;;26.09;40.50;97390.84;5015875;28;20363;-62
2021/07/10 10:31:27;;;;;;;5.05;1.50;;;;;;;26.14;40.74;97385.53;5015460;28;20044;-62
2021/07/10 10:33:53;;;;;;;3.42;1.45;;;;;;;26.11;37.37;97380.47;5014158;28;20026;-62
2021/07/10 10:36:23;;;;;;;3.58;1.60;;;;;;;25.95;40.00;97384.56;5015400;28;20026;-63
2021/07/10 10:38:50;;;;;;;3.57;1.80;;;;;;;25.97;39.66;97395.38;5014235;28;20080;-62
2021/07/10 10:41:16;;;;;;;3.72;1.70;;;;;;;25.97;40.05;97387.09;5015412;28;20030;-62
2021/07/10 10:43:42;;;;;;;3.60;1.55;;;;;;;25.88;39.39;97389.25;5013816;28;20105;-62
2021/07/10 10:46:12;;;;;;;2.38;1.70;;;;;;;26.01;39.60;97380.91;5013956;28;20133;-62
2021/07/10 10:48:39;;;;;;;2.50;1.60;;;;;;;26.16;38.68;97382.53;5011757;28;20026;-62
2021/07/10 10:51:29;;;;;;;2.05;1.60;;;;;;;26.08;37.61;97383.66;5045957;28;20028;-62
2021/07/10 10:54:16;;;;;;;1.30;1.20;;;;;;;26.02;36.08;97381.78;5013479;28;20447;-62
2021/07/10 10:56:42;;;;;;;1.67;1.20;;;;;;;26.12;36.52;97378.56;5014799;28;20037;-62
2021/07/10 10:59:27;;;;;;;2.35;1.40;;;;;;;26.06;36.50;97380.28;5014582;28;20022;-62
2021/07/10 11:01:54;;;;;;;3.83;1.40;;;;;;;26.18;37.06;97372.16;5014036;28;20460;-62
2021/07/10 11:04:57;;;;;;;2.83;1.50;;;;;;;26.47;38.04;97378.06;5014206;28;20537;-63
2021/07/10 11:07:36;;;;;;;3.17;1.70;;;;;;;26.63;37.57;97373.91;5013508;28;20470;-62
2021/07/10 11:10:10;;;;;;;1.80;1.50;;;;;;;26.75;38.92;97369.41;5029174;28;20541;-62
2021/07/10 11:12:48;;;;;;;2.58;1.42;;;;;;;26.52;36.87;97357.06;5046256;28;20394;-62
2021/07/10 11:15:25;;;;;;;2.28;1.60;;;;;;;26.57;36.85;97364.63;5014685;28;20088;-61
2021/07/10 11:17:55;;;;;;;3.90;1.40;;;;;;;26.52;37.09;97367.22;5014377;28;20104;-61
2021/07/10 11:20:45;;;;;;;3.03;1.58;;;;;;;26.67;37.50;97359.47;5014370;28;20034;-62
2021/07/10 11:23:30;;;;;;;4.55;1.50;;;;;;;26.71;36.65;97357.97;5014257;28;20052;-62
2021/07/10 11:26:03;;;;;;;2.28;1.50;;;;;;;26.78;35.97;97359.78;5014198;28;20442;-61
2021/07/10 11:28:34;;;;;;;2.03;1.48;;;;;;;26.60;36.43;97353.13;5012916;28;20499;-61
2021/07/10 11:31:03;;;;;;;3.28;1.33;;;;;;;26.33;34.68;97353.38;5014306;28;20028;-62
2021/07/10 11:34:07;;;;;;;3.63;1.38;;;;;;;26.61;35.35;97352.06;5045926;28;20433;-61